Time;durP1;ratioP1;P1;durP2;ratioP2;P2;SDS_P1;SDS_P2;PMS_P1;PMS_P2;Temp;Humidity;BMP_temperature;BMP_pressure;BME280_temperature;BME280_humidity;BME280_pressure;Samples;Min_cycle;Max_cycle;Signal;HPM_P1;HPM_P2
2022/06/15 00:01:55;;;;;;;10.32;3.50;;;;;;;17.87;71.55;100358.19;20734581;28;20080;-69
2022/06/15 00:11:56;;;;;;;8.30;3.53;;;;;;;17.69;74.09;100354.56;20734751;28;20420;-69
2022/06/15 00:21:58;;;;;;;7.65;3.50;;;;;;;17.47;76.25;100364.41;20734385;28;20443;-69
2022/06/15 00:32:00;;;;;;;9.32;4.03;;;;;;;17.15;78.54;100360.50;20732849;28;20473;-69
2022/06/15 00:42:03;;;;;;;9.73;3.97;;;;;;;16.81;81.91;100361.97;20733757;28;20053;-69
2022/06/15 00:52:09;;;;;;;7.88;3.83;;;;;;;16.41;84.45;100355.66;20738344;28;20061;-69
2022/06/15 01:02:11;;;;;;;7.28;4.05;;;;;;;16.37;84.53;100369.03;20747012;28;20076;-68
2022/06/15 01:12:47;;;;;;;7.63;3.75;;;;;;;16.11;86.60;100368.31;20746852;28;20061;-68
2022/06/15 01:23:00;;;;;;;;;;;;;;;15.79;87.76;100355.47;20743456;28;20042;-68
2022/06/15 01:33:07;;;;;;;10.63;4.25;;;;;;;15.87;87.82;100348.13;20745171;28;19921;-69
2022/06/15 01:43:17;;;;;;;8.07;4.20;;;;;;;15.73;88.73;100345.16;20744853;28;20056;-68
2022/06/15 01:53:45;;;;;;;7.30;4.07;;;;;;;15.34;90.47;100337.75;20743925;28;20050;-69
2022/06/15 02:03:55;;;;;;;10.02;4.13;;;;;;;15.33;89.50;100336.03;20742394;28;20053;-68
2022/06/15 02:14:06;;;;;;;9.55;4.45;;;;;;;15.24;90.63;100315.28;20741987;28;20050;-70
2022/06/15 02:24:11;;;;;;;9.07;4.28;;;;;;;15.14;91.92;100309.47;20742041;28;20096;-68
2022/06/15 02:34:13;;;;;;;6.93;3.97;;;;;;;15.13;91.61;100313.84;20740230;28;20050;-68
2022/06/15 02:44:18;;;;;;;8.93;3.97;;;;;;;14.72;93.74;100322.38;20739992;28;20108;-69
2022/06/15 02:54:26;;;;;;;7.47;4.47;;;;;;;14.39;95.14;100335.72;20739441;28;20057;-69
2022/06/15 03:04:28;;;;;;;8.32;4.10;;;;;;;14.19;94.25;100343.41;20737943;28;20156;-68
2022/06/15 03:14:30;;;;;;;8.48;4.20;;;;;;;14.37;92.25;100346.31;20737464;28;20503;-69
2022/06/15 03:24:32;;;;;;;8.77;4.40;;;;;;;14.41;91.74;100347.06;20737277;28;20042;-69
2022/06/15 03:34:33;;;;;;;6.57;3.60;;;;;;;14.49;91.44;100363.50;20735492;28;20104;-71
2022/06/15 03:44:35;;;;;;;6.75;3.67;;;;;;;14.55;90.22;100355.41;20736389;28;20054;-70
2022/06/15 03:54:37;;;;;;;9.10;3.95;;;;;;;14.78;88.10;100364.34;20734959;28;20521;-71
2022/06/15 04:04:39;;;;;;;7.65;3.22;;;;;;;14.80;88.23;100363.38;20734394;28;20050;-72
2022/06/15 04:14:41;;;;;;;9.95;3.90;;;;;;;14.92;86.01;100362.09;20734374;28;20054;-71
2022/06/15 04:24:42;;;;;;;5.78;3.25;;;;;;;14.99;83.78;100357.47;20735758;28;20104;-71
2022/06/15 04:34:43;;;;;;;6.53;3.67;;;;;;;16.48;74.29;100352.75;20748916;28;20088;-71
2022/06/15 04:44:45;;;;;;;6.70;3.00;;;;;;;17.27;68.94;100361.78;20749244;28;20108;-72
2022/06/15 04:54:46;;;;;;;7.25;2.97;;;;;;;17.43;67.71;100363.66;20748417;28;20053;-71
2022/06/15 05:04:48;;;;;;;7.80;3.00;;;;;;;16.70;73.16;100373.88;20746737;28;20046;-71
2022/06/15 05:14:49;;;;;;;6.20;3.15;;;;;;;16.60;76.08;100382.19;20747187;28;20058;-71
2022/06/15 05:24:51;;;;;;;9.32;3.35;;;;;;;16.85;76.10;100381.22;20747377;28;20417;-72
2022/06/15 05:34:55;;;;;;;9.02;3.47;;;;;;;17.15;75.08;100390.50;20744914;28;20080;-70
2022/06/15 05:45:03;;;;;;;7.05;3.00;;;;;;;17.18;76.52;100385.06;20743301;28;20450;-71
2022/06/15 05:55:05;;;;;;;6.60;3.50;;;;;;;17.62;75.03;100384.88;20743669;28;20062;-67
2022/06/15 06:05:07;;;;;;;9.18;3.75;;;;;;;17.84;73.95;100384.81;20742952;28;20046;-66
2022/06/15 06:15:08;;;;;;;8.77;3.63;;;;;;;17.78;75.79;100381.59;20742005;28;20061;-66
2022/06/15 06:25:10;;;;;;;5.78;2.80;;;;;;;18.14;74.54;100387.81;20742418;28;20670;-66
2022/06/15 06:35:11;;;;;;;11.38;4.03;;;;;;;18.18;76.23;100399.13;20767735;28;20058;-66
2022/06/15 06:45:13;;;;;;;7.07;3.80;;;;;;;18.58;74.01;100395.41;20761577;28;20042;-71
2022/06/15 06:55:15;;;;;;;17.38;3.42;;;;;;;19.01;71.91;100414.53;20747757;28;20107;-69
2022/06/15 07:05:17;;;;;;;9.93;3.83;;;;;;;19.29;71.20;100403.38;20757660;28;20045;-70
2022/06/15 07:15:19;;;;;;;10.77;3.50;;;;;;;19.41;68.87;100404.56;20777095;28;20490;-69
2022/06/15 07:25:21;;;;;;;7.60;3.50;;;;;;;19.86;68.31;100409.25;20751742;28;20053;-71
2022/06/15 07:35:30;;;;;;;8.07;3.20;;;;;;;20.14;65.90;100410.41;20729170;28;20396;-70
2022/06/15 07:45:31;;;;;;;10.80;3.47;;;;;;;20.17;65.02;100411.09;20809633;28;20057;-67
2022/06/15 07:55:36;;;;;;;7.93;3.15;;;;;;;20.65;63.14;100398.69;20808590;28;20428;-66
2022/06/15 08:05:44;;;;;;;8.18;3.42;;;;;;;20.87;64.65;100406.25;20806917;28;20115;-66
2022/06/15 08:15:48;;;;;;;11.27;4.13;;;;;;;21.62;64.25;100409.78;20756242;28;20054;-66
2022/06/15 08:25:53;;;;;;;7.07;3.58;;;;;;;21.69;64.97;100405.78;20737227;28;20060;-66
2022/06/15 08:35:55;;;;;;;8.82;3.28;;;;;;;22.31;63.38;100392.13;20724366;28;20054;-67
2022/06/15 08:46:10;;;;;;;8.57;3.50;;;;;;;22.68;57.21;100387.06;20724874;28;20534;-68
2022/06/15 08:56:21;;;;;;;11.38;4.07;;;;;;;23.08;55.41;100387.94;20725498;28;20064;-67
2022/06/15 09:06:48;;;;;;;8.07;3.60;;;;;;;23.42;56.03;100380.28;20725016;28;20057;-68
2022/06/15 09:16:57;;;;;;;9.98;3.50;;;;;;;23.70;51.90;100382.75;20795236;28;20053;-68
2022/06/15 09:27:02;;;;;;;14.82;3.50;;;;;;;24.39;49.21;100377.81;20820045;28;20049;-68
2022/06/15 09:37:10;;;;;;;12.27;3.92;;;;;;;24.91;51.27;100375.72;20818342;28;20115;-68
2022/06/15 09:47:44;;;;;;;7.03;3.13;;;;;;;25.42;50.17;100372.72;20818520;28;20149;-71
2022/06/15 09:57:53;;;;;;;9.13;3.45;;;;;;;25.80;46.35;100356.31;20817362;28;20077;-70
2022/06/15 10:07:58;;;;;;;5.55;3.17;;;;;;;26.21;48.02;100358.34;20816072;28;20096;-71
2022/06/15 10:18:14;;;;;;;6.70;3.28;;;;;;;26.47;45.58;100360.75;20745831;28;20042;-72
2022/06/15 10:28:21;;;;;;;7.68;3.58;;;;;;;26.76;44.70;100355.63;20740587;28;20049;-74
2022/06/15 10:38:24;;;;;;;10.15;3.50;;;;;;;26.99;46.27;100345.63;20760268;28;20099;-72
2022/06/15 10:48:34;;;;;;;7.90;3.50;;;;;;;26.96;44.45;100327.06;20813987;28;20053;-72
2022/06/15 11:09:17;;;;;;;8.63;3.67;;;;;;;27.54;44.09;100303.22;20812487;28;20087;-75
2022/06/15 11:19:19;;;;;;;8.00;3.70;;;;;;;27.34;41.21;100310.34;20811685;28;20048;-73
2022/06/15 11:29:52;;;;;;;8.27;3.72;;;;;;;27.58;43.17;100312.72;20810595;28;20045;-74
2022/06/15 11:40:14;;;;;;;7.60;3.28;;;;;;;27.65;41.05;100304.97;20810451;28;20041;-74
2022/06/15 11:50:28;;;;;;;7.28;3.50;;;;;;;27.88;41.38;100309.16;20805067;28;20056;-70
2022/06/15 12:00:41;;;;;;;6.35;3.50;;;;;;;28.35;41.34;100288.72;20806177;28;20056;-70
2022/06/15 12:10:50;;;;;;;8.73;3.97;;;;;;;28.36;40.71;100295.84;20806535;28;20057;-71
2022/06/15 12:21:37;;;;;;;7.22;3.40;;;;;;;28.53;39.12;100286.19;20808390;28;20172;-71
2022/06/15 12:42:22;;;;;;;9.10;4.00;;;;;;;28.50;38.86;100264.91;20808440;28;20053;-70
2022/06/15 12:52:56;;;;;;;6.78;3.50;;;;;;;28.10;38.09;100267.72;20819429;28;20212;-71
2022/06/15 13:03:23;;;;;;;5.47;3.40;;;;;;;28.67;38.10;100254.41;20822500;28;20049;-70
2022/06/15 13:13:45;;;;;;;8.07;3.40;;;;;;;28.49;36.37;100256.97;20820821;28;20398;-70
2022/06/15 13:23:57;;;;;;;7.60;3.30;;;;;;;28.75;35.49;100238.38;20820397;28;20099;-71
2022/06/15 13:34:02;;;;;;;5.03;2.60;;;;;;;29.12;33.37;100246.50;20819092;28;20049;-70
2022/06/15 13:44:09;;;;;;;4.32;2.70;;;;;;;29.39;32.78;100243.84;20818914;28;20049;-70
2022/06/15 13:54:33;;;;;;;4.97;2.33;;;;;;;29.60;29.03;100240.09;20818155;28;20057;-71
2022/06/15 14:04:43;;;;;;;5.35;2.40;;;;;;;29.98;26.52;100213.84;20814619;28;20047;-68
2022/06/15 14:14:50;;;;;;;4.95;1.95;;;;;;;30.31;23.14;100218.56;20772617;28;20045;-68
2022/06/15 14:25:08;;;;;;;3.65;1.75;;;;;;;30.39;22.97;100198.88;20743992;28;20073;-68
2022/06/15 14:35:20;;;;;;;4.90;1.73;;;;;;;30.30;21.86;100192.56;20732672;28;20046;-68
2022/06/15 14:45:27;;;;;;;5.83;2.40;;;;;;;30.61;22.57;100200.22;20730533;28;20289;-71
2022/06/15 14:55:33;;;;;;;5.25;2.50;;;;;;;30.54;23.17;100196.47;20732386;28;20061;-74
2022/06/15 15:05:38;;;;;;;4.78;2.15;;;;;;;29.83;23.67;100206.28;20730537;28;20050;-71
2022/06/15 15:15:49;;;;;;;3.50;1.90;;;;;;;30.32;22.61;100193.25;20781403;28;20402;-71
2022/06/15 15:25:54;;;;;;;6.72;2.60;;;;;;;30.43;25.22;100196.72;20811844;28;20050;-69
2022/06/15 15:36:02;;;;;;;4.80;2.50;;;;;;;30.75;25.68;100196.13;20809883;28;20057;-68
2022/06/15 15:46:07;;;;;;;5.85;2.58;;;;;;;30.77;25.93;100164.38;20809604;28;20445;-68
2022/06/15 15:56:09;;;;;;;5.57;2.90;;;;;;;30.71;25.10;100168.59;20805886;28;20052;-68
2022/06/15 16:06:10;;;;;;;4.75;2.45;;;;;;;31.22;24.68;100161.38;20807679;28;20041;-68
2022/06/15 16:16:12;;;;;;;6.80;2.67;;;;;;;31.07;24.94;100146.78;20807551;28;20057;-68
2022/06/15 16:26:14;;;;;;;4.93;2.78;;;;;;;31.38;25.25;100147.97;20817246;28;20092;-69
2022/06/15 16:36:16;;;;;;;5.67;2.47;;;;;;;31.49;24.60;100135.13;20821989;28;20399;-68
2022/06/15 16:46:20;;;;;;;5.20;2.77;;;;;;;31.00;25.27;100140.31;20820797;28;20115;-69
2022/06/15 16:56:28;;;;;;;6.50;2.83;;;;;;;30.95;25.92;100148.06;20822310;28;20084;-69
2022/06/15 17:06:36;;;;;;;6.40;3.00;;;;;;;30.77;25.80;100140.91;20822185;28;20057;-69
2022/06/15 17:16:39;;;;;;;5.00;2.92;;;;;;;31.05;26.88;100136.16;20761294;28;20054;-71
2022/06/15 17:26:45;;;;;;;5.00;2.80;;;;;;;31.03;26.98;100132.75;20738349;28;20050;-73
2022/06/15 17:36:46;;;;;;;5.85;2.67;;;;;;;30.84;27.58;100141.94;20736210;28;20565;-71
2022/06/15 17:46:48;;;;;;;9.90;2.80;;;;;;;30.81;28.38;100142.28;20734624;28;20133;-71
2022/06/15 17:56:50;;;;;;;6.95;2.83;;;;;;;30.72;28.57;100143.25;20735857;28;20471;-71
2022/06/15 18:06:53;;;;;;;6.88;3.22;;;;;;;30.51;29.98;100150.84;20733722;28;20057;-71
2022/06/15 18:16:56;;;;;;;;;;;;;;;30.45;30.08;100137.97;20794855;28;20659;-70
2022/06/15 18:26:57;;;;;;;6.53;4.27;;;;;;;30.09;32.78;100140.72;20815618;28;19925;-71
2022/06/15 18:37:02;;;;;;;7.70;3.42;;;;;;;29.82;33.93;100152.44;20814395;28;20049;-71
2022/06/15 18:57:27;;;;;;;7.07;3.20;;;;;;;28.37;39.89;100146.72;20812460;28;20053;-71
2022/06/15 19:07:29;;;;;;;5.43;3.20;;;;;;;27.71;43.20;100151.06;20811652;28;20076;-71
2022/06/15 19:17:33;;;;;;;6.25;3.00;;;;;;;26.97;45.12;100154.94;20744780;28;20042;-71
2022/06/15 19:27:34;;;;;;;7.30;3.25;;;;;;;26.47;48.54;100168.28;20728745;28;20053;-72
2022/06/15 19:37:39;;;;;;;6.78;4.07;;;;;;;26.01;50.37;100177.50;20727881;28;20050;-74
2022/06/15 19:47:40;;;;;;;4.57;2.88;;;;;;;25.16;52.51;100185.38;20728053;28;20484;-71
2022/06/15 19:57:42;;;;;;;6.38;3.53;;;;;;;24.78;56.14;100199.94;20723772;28;20057;-70
2022/06/15 20:07:44;;;;;;;9.00;3.92;;;;;;;24.55;57.10;100201.72;20727312;28;20507;-70
2022/06/15 20:17:48;;;;;;;7.50;4.20;;;;;;;24.21;57.76;100207.91;20795894;28;20057;-70
2022/06/15 20:27:55;;;;;;;7.18;3.75;;;;;;;23.56;62.72;100226.00;20808426;28;20057;-70
2022/06/15 20:37:57;;;;;;;5.78;3.63;;;;;;;23.29;66.21;100231.53;20807500;28;20457;-70
2022/06/15 20:48:02;;;;;;;9.10;4.50;;;;;;;23.23;67.00;100239.09;20808022;28;20119;-72
2022/06/15 20:58:03;;;;;;;7.45;4.25;;;;;;;23.00;68.75;100241.59;20806686;28;20050;-70
2022/06/15 21:08:05;;;;;;;7.28;4.60;;;;;;;22.68;71.70;100241.13;20808959;28;20047;-70
2022/06/15 21:18:06;;;;;;;9.63;4.53;;;;;;;22.64;72.00;100241.44;20749832;28;20045;-71
2022/06/15 21:28:09;;;;;;;7.80;5.30;;;;;;;22.32;74.63;100243.59;20739222;28;20112;-73
2022/06/15 21:38:11;;;;;;;8.80;4.38;;;;;;;21.69;78.50;100240.56;20737676;28;20046;-71
2022/06/15 21:48:13;;;;;;;9.82;4.88;;;;;;;21.32;82.40;100246.50;20737036;28;20104;-73
2022/06/15 21:58:14;;;;;;;7.38;4.80;;;;;;;21.39;82.03;100253.19;20736006;28;20058;-72
2022/06/15 22:08:16;;;;;;;7.53;4.95;;;;;;;21.06;84.05;100246.31;20795776;28;20053;-73
2022/06/15 22:18:18;;;;;;;7.93;5.13;;;;;;;21.05;85.87;100249.91;20823671;28;20049;-71
2022/06/15 22:28:20;;;;;;;8.85;5.47;;;;;;;20.86;87.51;100259.97;20821646;28;20057;-73
2022/06/15 22:38:21;;;;;;;7.70;5.07;;;;;;;20.72;88.25;100252.81;20822319;28;20599;-74
2022/06/15 22:58:43;;;;;;;9.32;5.68;;;;;;;20.24;90.38;100231.66;20821543;28;20061;-71
2022/06/15 23:08:44;;;;;;;9.38;6.18;;;;;;;20.01;92.85;100247.22;20820113;28;20053;-69
2022/06/15 23:18:46;;;;;;;8.10;6.00;;;;;;;19.98;93.21;100256.25;20819942;28;20418;-69
2022/06/15 23:28:48;;;;;;;8.35;5.80;;;;;;;19.88;93.13;100261.22;20819140;28;20545;-69
2022/06/15 23:38:49;;;;;;;10.25;6.22;;;;;;;19.88;94.01;100260.34;20816533;28;20076;-72
2022/06/15 23:48:51;;;;;;;9.75;6.13;;;;;;;19.68;94.67;100270.28;20818323;28;20050;-71
2022/06/15 23:58:52;;;;;;;10.07;6.75;;;;;;;19.47;96.26;100282.06;20817256;28;20069;-72
